D/T METAR WX W/DIR W/SPE G/SPE TEMP DEWP
25/02/20 13:50 EGXP 251350Z 28012KT 9999 VCSH FEW050CB SCT130 06/01 Q0994 RMK BLU VCSH W (280°) 13.8mph 6°C 1°C
25/02/20 12:50 EGXP 251250Z 28014KT 9999 FEW028 BKN040 BKN050 06/01 Q0995 RMK BLU W (280°) 16.1mph 6°C 1°C
25/02/20 11:50 EGXP 251150Z 29015KT 9999 SCT026 SCT039 BKN044 05/01 Q0996 RMK BLU WNW (290°) 17.3mph 5°C 1°C
25/02/20 10:50 EGXP 251050Z 27015KT 9999 BKN026 BKN039 06/01 Q0996 RMK BLU W (270°) 17.3mph 6°C 1°C
25/02/20 09:50 EGXP 250950Z 26015KT 9999 BKN026 05/02 Q0996 RMK BLU W (260°) 17.3mph 5°C 2°C
25/02/20 08:50 EGXP 250850Z 26015KT 9999 FEW028 04/02 Q0996 RMK BLU W (260°) 17.3mph 4°C 2°C
25/02/20 07:50 EGXP 250750Z 27013KT 9999 FEW016 BKN034 BKN070 03/02 Q0997 RMK BLU W (270°) 15.0mph 3°C 2°C
25/02/20 06:50 EGXP 250650Z 25010KT CAVOK 02/01 Q0997 RMK BLU WSW (250°) 11.5mph 2°C 1°C
25/02/20 05:50 EGXP 250550Z AUTO 24013KT 9999 // NCD 02/01 Q0997 WSW (240°) 15.0mph 2°C 1°C
25/02/20 04:50 EGXP 250450Z AUTO 24010KT 9999 // BKN023/// 03/00 Q0998 WSW (240°) 11.5mph 3°C 0°C
25/02/20 03:50 EGXP 250350Z AUTO 26017KT 9999 // FEW050/// 03/00 Q0999 W (260°) 19.6mph 3°C 0°C
25/02/20 02:50 EGXP 250250Z AUTO 26013KT 9999 // NCD 03/01 Q0999 W (260°) 15.0mph 3°C 1°C
25/02/20 01:50 EGXP 250150Z AUTO 27018KT 9999 // FEW028/// 05/02 Q0999 W (270°) 20.7mph 5°C 2°C
25/02/20 00:50 EGXP 250050Z AUTO 27015KT 9999 // NCD 04/01 Q0999 W (270°) 17.3mph 4°C 1°C
24/02/20 23:50 EGXP 242350Z AUTO 26020KT 9999 // FEW029/// 05/01 Q0999 W (260°) 23.0mph 5°C 1°C
24/02/20 22:50 EGXP 242250Z AUTO 26017KT 9999 // SCT033/// 06/02 Q0999 W (260°) 19.6mph 6°C 2°C
24/02/20 21:50 EGXP 242150Z AUTO 27018KT 9999 // BKN032/// 06/02 Q0999 W (270°) 20.7mph 6°C 2°C
24/02/20 20:50 EGXP 242050Z AUTO 27018KT 9999 // SCT031/// 06/02 Q0999 W (270°) 20.7mph 6°C 2°C
24/02/20 19:50 EGXP 241950Z AUTO 26022KT 9999 // BKN033/// 07/02 Q0999 W (260°) 25.3mph 7°C 2°C
24/02/20 18:50 EGXP 241850Z AUTO 27023G33KT //// // FEW033/// 07/02 Q0998 W (270°) 26.5mph 38.0mph 7°C 2°C
24/02/20 17:50 EGXP 241750Z AUTO 27027KT //// // FEW030/// 08/03 Q0998 W (270°) 31.1mph 8°C 3°C
24/02/20 16:50 EGXP 241650Z AUTO 27023KT 9999 // SCT031/// SCT050/// 12/07 Q0996 W (270°) 26.5mph 12°C 7°C
24/02/20 15:50 EGXP 241550Z AUTO 25022KT 9999 // FEW027/// 12/08 Q0996 WSW (250°) 25.3mph 12°C 8°C
24/02/20 14:50 EGXP 241450Z 25022KT 9999 SCT018 BKN044 13/10 Q0996 RMK WHT WSW (250°) 25.3mph 13°C 10°C
24/02/20 13:50 EGXP 241350Z 24023KT 9999 FEW012 BKN022 12/10 Q0997 RMK WHT WSW (240°) 26.5mph 12°C 10°C
24/02/20 12:50 EGXP 241250Z 23023KT 9999 BKN012 BKN021 11/10 Q0997 RMK GRN SW (230°) 26.5mph 11°C 10°C
24/02/20 11:50 EGXP 241150Z 24021KT 9999 SCT013 BKN019 10/09 Q0999 RMK GRN WSW (240°) 24.2mph 10°C 9°C
24/02/20 10:50 EGXP 241050Z 23023G33KT 9999 FEW009 SCT014 BKN021 10/09 Q0999 RMK GRN SW (230°) 26.5mph 38.0mph 10°C 9°C
24/02/20 10:14 EGXP 241014Z 22019KT 9999 -RA SCT009 BKN016 09/09 Q1000 RMK GRN -RA SW (220°) 21.9mph 9°C 9°C
24/02/20 08:50 EGXP 240850Z 18013KT 9999 -RA BKN006 OVC014 06/06 Q1002 RMK YLO1 -RA S (180°) 15.0mph 6°C 6°C
24/02/20 07:50 EGXP 240750Z 16017G27KT 5000 RA BKN004 OVC011 04/04 Q1005 RMK YLO 2 RA SSE (160°) 19.6mph 31.1mph 4°C 4°C
24/02/20 06:50 EGXP 240650Z AUTO 14016KT 6000 // BKN003/// 03/03 Q1007 SE (140°) 18.4mph 3°C 3°C
24/02/20 05:50 EGXP 240550Z AUTO 17013KT 8000 // FEW015/// SCT022/// BKN029/// 04/02 Q1011 S (170°) 15.0mph 4°C 2°C
24/02/20 04:50 EGXP 240450Z AUTO 13008KT 9999 // BKN033/// SCT050/// 03/01 Q1013 SE (130°) 9.2mph 3°C 1°C
24/02/20 03:50 EGXP 240350Z AUTO 17010KT 9999 // BKN020/// SCT050/// 04/01 Q1016 S (170°) 11.5mph 4°C 1°C
24/02/20 02:50 EGXP 240250Z AUTO 18005KT 9999 // SCT036/// BKN050/// 05/01 Q1018 S (180°) 5.8mph 5°C 1°C
24/02/20 01:50 EGXP 240150Z AUTO 20007KT 9999 // OVC070/// 04/01 Q1019 SSW (200°) 8.1mph 4°C 1°C
24/02/20 00:50 EGXP 240050Z AUTO 20006KT 9999 // OVC110/// 04/01 Q1020 SSW (200°) 6.9mph 4°C 1°C
23/02/20 23:50 EGXP 232350Z AUTO 23009KT 9999 // OVC110/// 04/02 Q1021 SW (230°) 10.4mph 4°C 2°C
23/02/20 22:50 EGXP 232250Z AUTO 23007KT 9999 // BKN140/// 04/02 Q1021 SW (230°) 8.1mph 4°C 2°C
23/02/20 21:50 EGXP 232150Z AUTO 24010KT 9999 // BKN140/// 03/01 Q1021 WSW (240°) 11.5mph 3°C 1°C
23/02/20 20:50 EGXP 232050Z AUTO 24008KT 9999 // FEW180/// 03/00 Q1021 WSW (240°) 9.2mph 3°C 0°C
23/02/20 19:50 EGXP 231950Z AUTO 27009KT 9999 // FEW190/// 04/00 Q1021 W (270°) 10.4mph 4°C 0°C
23/02/20 18:50 EGXP 231850Z AUTO 27010KT 9999 // BKN240/// 05/00 Q1020 W (270°) 11.5mph 5°C 0°C
23/02/20 17:50 EGXP 231750Z AUTO 29012KT 9999 // NCD 05/M00 Q1019 WNW (290°) 13.8mph 5°C 0°C
23/02/20 16:50 EGXP 231650Z AUTO 29018KT 9999 // NCD 06/M01 Q1017 WNW (290°) 20.7mph 6°C -1°C
23/02/20 15:50 EGXP 231550Z AUTO 29021KT 9999 // NCD 06/M01 Q1016 WNW (290°) 24.2mph 6°C -1°C
23/02/20 14:50 EGXP 231450Z AUTO 29021G31KT 9999 // FEW044/// 07/M01 Q1015 WNW (290°) 24.2mph 35.7mph 7°C -1°C